Centennial Airport
KAPA : now visible

Airfield :











YOU CAN JOIN US ON...

 
LOGIN :

Register | Disclaimer

   EN    FR    IT 

 









Legend :    VFR   Marginal VFR   IFR   Intensive IFR   Very Intensive IFR
Visi :
Ceiling :
>= 8 km
>= 3000ft
5 to 8 km
1000 to 3000 ft
1500m to 5 km
500 to 1000 ft
800 to 1500m
200 to 500 ft
< 800m
< 200 ft
Symbols :   Thunderstorms  Fog  Heavy snow  Heavy precipitations  Wind > 20 kt






- Airport Elevation : 5885 ft


KAPA - Centennial

CURRENT METAR :
  • 071557Z 35004KT 4SM BR BKN006 OVC011 06/04 A3048 RMK AO2 T00610044

EXPIRED METARs :
  • 071453Z 02003KT 1SM BR OVC003 05/04 A3049 RMK AO2 SFC VIS 2 1/2 SLP307 VIS 2V3 T00500044 51008
  • 071353Z 03003KT 1/2SM BR OVC002 04/04 A3048 RMK AO2 SFC VIS 1 SLP306 VIS 3/4V1 1/4 T00440044

TAF KAPA
Valid from the 07 at 13:00 until the 08 at 12:00 UTC


071318Z 0713/0812 05006KT 2SM BR OVC006
TEMPO 0713/0715 1/2SM FG OVC002
FM071500 04007KT P6SM OVC012
FM071700 05010KT P6SM BKN020 OVC040
FM080200 11006KT P6SM BKN020 OVC040
FM080600 15006KT P6SM SCT020 BKN080
KZDV FIR / North America



MET'MAP, your aeronautical weather chart ! - Copyright ORBIFLY December 2007 - Disclaimer

ORBIFLY MET'MAP TEAM :

Programming & Development : Alexandra Zaïnal
Original concept : Baudouin d'Aumeries
Technical & hardware support : Manuel Goepfert
Assistance : Marc-Olivier Méhu




SOURCES & CREDITS :

   NOAA       Earth
Advisory